sensor_id;sensor_type;location;lat;lon;timestamp;pressure;altitude;pressure_sealevel;temperature;humidity
2268;BME280;11052;43.338;25.502;2023-05-21T00:01:36;100564.06;;;12.86;100.00
2268;BME280;11052;43.338;25.502;2023-05-21T00:04:04;100558.88;;;12.86;100.00
2268;BME280;11052;43.338;25.502;2023-05-21T00:06:32;100548.63;;;12.81;100.00
2268;BME280;11052;43.338;25.502;2023-05-21T00:09:00;100555.59;;;12.80;100.00
2268;BME280;11052;43.338;25.502;2023-05-21T00:11:27;100546.19;;;12.76;100.00
2268;BME280;11052;43.338;25.502;2023-05-21T00:13:55;100544.50;;;12.75;100.00
2268;BME280;11052;43.338;25.502;2023-05-21T00:16:23;100540.34;;;12.70;100.00
2268;BME280;11052;43.338;25.502;2023-05-21T00:18:51;100550.84;;;12.67;100.00
2268;BME280;11052;43.338;25.502;2023-05-21T00:21:19;100536.25;;;12.63;100.00
2268;BME280;11052;43.338;25.502;2023-05-21T00:23:47;100534.47;;;12.65;100.00
2268;BME280;11052;43.338;25.502;2023-05-21T00:26:14;100535.41;;;12.62;100.00
2268;BME280;11052;43.338;25.502;2023-05-21T00:28:41;100530.41;;;12.56;100.00
2268;BME280;11052;43.338;25.502;2023-05-21T00:31:08;100524.53;;;12.51;100.00
2268;BME280;11052;43.338;25.502;2023-05-21T00:33:37;100526.31;;;12.49;100.00
2268;BME280;11052;43.338;25.502;2023-05-21T00:36:05;100516.09;;;12.44;100.00
2268;BME280;11052;43.338;25.502;2023-05-21T00:38:32;100514.50;;;12.40;100.00
2268;BME280;11052;43.338;25.502;2023-05-21T00:41:00;100517.34;;;12.33;100.00
2268;BME280;11052;43.338;25.502;2023-05-21T00:43:27;100512.25;;;12.30;100.00
2268;BME280;11052;43.338;25.502;2023-05-21T00:45:54;100514.16;;;12.25;100.00
2268;BME280;11052;43.338;25.502;2023-05-21T00:48:23;100513.22;;;12.27;100.00
2268;BME280;11052;43.338;25.502;2023-05-21T00:50:53;100513.31;;;12.24;100.00
2268;BME280;11052;43.338;25.502;2023-05-21T00:53:21;100513.34;;;12.23;100.00
2268;BME280;11052;43.338;25.502;2023-05-21T00:55:49;100513.31;;;12.24;100.00
2268;BME280;11052;43.338;25.502;2023-05-21T00:58:16;100517.91;;;12.16;100.00
2268;BME280;11052;43.338;25.502;2023-05-21T01:00:43;100526.09;;;12.05;100.00
2268;BME280;11052;43.338;25.502;2023-05-21T01:03:11;100530.47;;;12.03;100.00
2268;BME280;11052;43.338;25.502;2023-05-21T01:05:41;100521.88;;;12.01;100.00
2268;BME280;11052;43.338;25.502;2023-05-21T01:08:11;100518.34;;;12.04;100.00
2268;BME280;11052;43.338;25.502;2023-05-21T01:10:39;100515.88;;;11.99;100.00
2268;BME280;11052;43.338;25.502;2023-05-21T01:13:06;100511.59;;;11.98;100.00
2268;BME280;11052;43.338;25.502;2023-05-21T01:15:34;100514.25;;;11.97;100.00
2268;BME280;11052;43.338;25.502;2023-05-21T01:18:03;100504.78;;;11.94;100.00
2268;BME280;11052;43.338;25.502;2023-05-21T01:20:30;100504.16;;;11.88;100.00
2268;BME280;11052;43.338;25.502;2023-05-21T01:22:59;100508.41;;;11.90;100.00
2268;BME280;11052;43.338;25.502;2023-05-21T01:25:26;100510.09;;;11.91;100.00
2268;BME280;11052;43.338;25.502;2023-05-21T01:27:53;100513.53;;;11.92;100.00
2268;BME280;11052;43.338;25.502;2023-05-21T01:30:21;100509.19;;;11.92;100.00
2268;BME280;11052;43.338;25.502;2023-05-21T01:32:53;100517.09;;;11.89;100.00
2268;BME280;11052;43.338;25.502;2023-05-21T01:35:25;100514.59;;;11.86;100.00
2268;BME280;11052;43.338;25.502;2023-05-21T01:38:06;100514.50;;;11.89;100.00
2268;BME280;11052;43.338;25.502;2023-05-21T01:40:40;100516.38;;;11.84;100.00
2268;BME280;11052;43.338;25.502;2023-05-21T01:43:12;100515.38;;;11.88;100.00
2268;BME280;11052;43.338;25.502;2023-05-21T01:45:41;100511.78;;;11.92;100.00
2268;BME280;11052;43.338;25.502;2023-05-21T01:48:10;100498.56;;;12.00;100.00
2268;BME280;11052;43.338;25.502;2023-05-21T01:50:38;100500.22;;;12.02;100.00
2268;BME280;11052;43.338;25.502;2023-05-21T01:53:07;100503.69;;;12.01;100.00
2268;BME280;11052;43.338;25.502;2023-05-21T01:55:34;100500.31;;;11.99;100.00
2268;BME280;11052;43.338;25.502;2023-05-21T01:58:04;100500.56;;;11.92;100.00
2268;BME280;11052;43.338;25.502;2023-05-21T02:00:31;100497.81;;;11.96;100.00
2268;BME280;11052;43.338;25.502;2023-05-21T02:02:59;100494.59;;;11.88;100.00
2268;BME280;11052;43.338;25.502;2023-05-21T02:05:26;100495.44;;;11.89;100.00
2268;BME280;11052;43.338;25.502;2023-05-21T02:07:53;100495.41;;;11.90;100.00
2268;BME280;11052;43.338;25.502;2023-05-21T02:10:21;100499.78;;;11.88;100.00
2268;BME280;11052;43.338;25.502;2023-05-21T02:12:48;100498.00;;;11.90;100.00
2268;BME280;11052;43.338;25.502;2023-05-21T02:15:16;100501.41;;;11.92;100.00
2268;BME280;11052;43.338;25.502;2023-05-21T02:17:43;100502.06;;;11.99;100.00
2268;BME280;11052;43.338;25.502;2023-05-21T02:20:11;100495.09;;;11.99;100.00
2268;BME280;11052;43.338;25.502;2023-05-21T02:22:39;100496.81;;;12.00;100.00
2268;BME280;11052;43.338;25.502;2023-05-21T02:25:08;100488.09;;;12.01;100.00
2268;BME280;11052;43.338;25.502;2023-05-21T02:27:37;100495.72;;;12.07;100.00
2268;BME280;11052;43.338;25.502;2023-05-21T02:30:06;100480.22;;;12.04;100.00
2268;BME280;11052;43.338;25.502;2023-05-21T02:32:34;100482.97;;;12.00;100.00
2268;BME280;11052;43.338;25.502;2023-05-21T02:35:02;100492.59;;;11.96;100.00
2268;BME280;11052;43.338;25.502;2023-05-21T02:37:31;100486.72;;;11.91;100.00
2268;BME280;11052;43.338;25.502;2023-05-21T02:39:59;100495.44;;;11.89;100.00
2268;BME280;11052;43.338;25.502;2023-05-21T02:42:26;100499.78;;;11.88;100.00
2268;BME280;11052;43.338;25.502;2023-05-21T02:44:55;100496.31;;;11.89;100.00
2268;BME280;11052;43.338;25.502;2023-05-21T02:47:22;100506.88;;;11.83;100.00
2268;BME280;11052;43.338;25.502;2023-05-21T02:49:50;100507.09;;;11.77;100.00
2268;BME280;11052;43.338;25.502;2023-05-21T02:52:18;100504.34;;;11.81;100.00
2268;BME280;11052;43.338;25.502;2023-05-21T02:54:47;100500.69;;;11.87;100.00
2268;BME280;11052;43.338;25.502;2023-05-21T02:57:14;100502.75;;;11.76;100.00
2268;BME280;11052;43.338;25.502;2023-05-21T02:59:42;100499.31;;;11.75;100.00
2268;BME280;11052;43.338;25.502;2023-05-21T03:02:11;100498.34;;;11.79;100.00
2268;BME280;11052;43.338;25.502;2023-05-21T03:04:38;100507.53;;;11.90;100.00
2268;BME280;11052;43.338;25.502;2023-05-21T03:07:10;100513.50;;;11.93;100.00
2268;BME280;11052;43.338;25.502;2023-05-21T03:09:38;100506.41;;;11.98;100.00
2268;BME280;11052;43.338;25.502;2023-05-21T03:12:06;100509.59;;;12.06;100.00
2268;BME280;11052;43.338;25.502;2023-05-21T03:14:33;100505.16;;;12.10;100.00
2268;BME280;11052;43.338;25.502;2023-05-21T03:17:00;100505.94;;;12.12;100.00
2268;BME280;11052;43.338;25.502;2023-05-21T03:19:32;100502.97;;;12.23;100.00
2268;BME280;11052;43.338;25.502;2023-05-21T03:22:00;100504.34;;;12.33;100.00
2268;BME280;11052;43.338;25.502;2023-05-21T03:24:27;100507.66;;;12.38;100.00
2268;BME280;11052;43.338;25.502;2023-05-21T03:26:55;100506.75;;;12.39;100.00
2268;BME280;11052;43.338;25.502;2023-05-21T03:29:23;100515.13;;;12.47;100.00
2268;BME280;11052;43.338;25.502;2023-05-21T03:31:51;100510.69;;;12.51;100.00
2268;BME280;11052;43.338;25.502;2023-05-21T03:34:18;100514.13;;;12.51;100.00
2268;BME280;11052;43.338;25.502;2023-05-21T03:36:47;100511.47;;;12.53;100.00
2268;BME280;11052;43.338;25.502;2023-05-21T03:39:14;100509.63;;;12.56;100.00
2268;BME280;11052;43.338;25.502;2023-05-21T03:41:42;100509.63;;;12.56;100.00
2268;BME280;11052;43.338;25.502;2023-05-21T03:44:09;100502.44;;;12.63;100.00
2268;BME280;11052;43.338;25.502;2023-05-21T03:46:36;100504.66;;;12.73;100.00
2268;BME280;11052;43.338;25.502;2023-05-21T03:49:03;100510.63;;;12.77;100.00
2268;BME280;11052;43.338;25.502;2023-05-21T03:51:30;100511.34;;;12.80;100.00
2268;BME280;11052;43.338;25.502;2023-05-21T03:53:59;100508.06;;;12.75;100.00
2268;BME280;11052;43.338;25.502;2023-05-21T03:56:26;100509.44;;;12.86;100.00
2268;BME280;11052;43.338;25.502;2023-05-21T03:58:53;100521.22;;;12.96;100.00
2268;BME280;11052;43.338;25.502;2023-05-21T04:01:20;100507.72;;;13.08;100.00
2268;BME280;11052;43.338;25.502;2023-05-21T04:03:47;100501.00;;;13.26;100.00
2268;BME280;11052;43.338;25.502;2023-05-21T04:06:14;100511.03;;;13.36;100.00
2268;BME280;11052;43.338;25.502;2023-05-21T04:08:41;100504.16;;;13.57;100.00
2268;BME280;11052;43.338;25.502;2023-05-21T04:11:10;100504.50;;;13.70;100.00
2268;BME280;11052;43.338;25.502;2023-05-21T04:13:37;100501.47;;;13.81;100.00
2268;BME280;11052;43.338;25.502;2023-05-21T04:16:05;100504.88;;;13.83;100.00
2268;BME280;11052;43.338;25.502;2023-05-21T04:18:33;100505.50;;;13.88;100.00
2268;BME280;11052;43.338;25.502;2023-05-21T04:21:00;100503.50;;;13.94;100.00
2268;BME280;11052;43.338;25.502;2023-05-21T04:23:27;100506.00;;;13.97;100.00
2268;BME280;11052;43.338;25.502;2023-05-21T04:25:54;100513.03;;;13.95;100.00
2268;BME280;11052;43.338;25.502;2023-05-21T04:28:23;100516.16;;;14.03;100.00
2268;BME280;11052;43.338;25.502;2023-05-21T04:30:53;100515.91;;;14.09;100.00
2268;BME280;11052;43.338;25.502;2023-05-21T04:33:21;100515.28;;;14.25;100.00
2268;BME280;11052;43.338;25.502;2023-05-21T04:35:49;100515.91;;;14.52;100.00
2268;BME280;11052;43.338;25.502;2023-05-21T04:38:17;100517.66;;;14.71;100.00
2268;BME280;11052;43.338;25.502;2023-05-21T04:40:45;100517.22;;;14.81;100.00
2268;BME280;11052;43.338;25.502;2023-05-21T04:43:12;100513.09;;;14.95;100.00
2268;BME280;11052;43.338;25.502;2023-05-21T04:45:43;100507.97;;;15.31;100.00
2268;BME280;11052;43.338;25.502;2023-05-21T04:48:10;100512.50;;;15.47;100.00
2268;BME280;11052;43.338;25.502;2023-05-21T04:50:40;100505.69;;;15.61;100.00
2268;BME280;11052;43.338;25.502;2023-05-21T04:53:07;100516.09;;;15.63;100.00
2268;BME280;11052;43.338;25.502;2023-05-21T04:55:34;100511.72;;;15.45;100.00
2268;BME280;11052;43.338;25.502;2023-05-21T04:58:04;100503.03;;;15.44;100.00
2268;BME280;11052;43.338;25.502;2023-05-21T05:00:31;100512.28;;;15.51;100.00
2268;BME280;11052;43.338;25.502;2023-05-21T05:03:00;100516.09;;;15.44;100.00
2268;BME280;11052;43.338;25.502;2023-05-21T05:05:27;100510.72;;;15.47;100.00
2268;BME280;11052;43.338;25.502;2023-05-21T05:07:54;100510.72;;;15.66;100.00
2268;BME280;11052;43.338;25.502;2023-05-21T05:10:22;100517.56;;;15.68;100.00
2268;BME280;11052;43.338;25.502;2023-05-21T05:12:49;100519.81;;;15.76;100.00
2268;BME280;11052;43.338;25.502;2023-05-21T05:15:17;100515.09;;;16.01;100.00
2268;BME280;11052;43.338;25.502;2023-05-21T05:17:44;100503.66;;;16.21;100.00
2268;BME280;11052;43.338;25.502;2023-05-21T05:20:14;100505.19;;;16.43;100.00
2268;BME280;11052;43.338;25.502;2023-05-21T05:22:41;100503.28;;;16.79;100.00
2268;BME280;11052;43.338;25.502;2023-05-21T05:25:08;100499.28;;;17.36;100.00
2268;BME280;11052;43.338;25.502;2023-05-21T05:27:37;100497.59;;;17.98;100.00
2268;BME280;11052;43.338;25.502;2023-05-21T05:30:05;100506.03;;;18.48;100.00
2268;BME280;11052;43.338;25.502;2023-05-21T05:32:32;100502.63;;;19.04;100.00
2268;BME280;11052;43.338;25.502;2023-05-21T05:34:59;100507.63;;;19.64;100.00
2268;BME280;11052;43.338;25.502;2023-05-21T05:37:28;100506.91;;;20.14;100.00
2268;BME280;11052;43.338;25.502;2023-05-21T05:39:55;100502.16;;;20.72;100.00
2268;BME280;11052;43.338;25.502;2023-05-21T05:42:22;100500.09;;;21.13;100.00
2268;BME280;11052;43.338;25.502;2023-05-21T05:44:49;100497.00;;;21.45;100.00
2268;BME280;11052;43.338;25.502;2023-05-21T05:47:16;100497.78;;;21.21;100.00
2268;BME280;11052;43.338;25.502;2023-05-21T05:49:44;100486.19;;;21.61;100.00
2268;BME280;11052;43.338;25.502;2023-05-21T05:52:11;100492.78;;;21.90;100.00
2268;BME280;11052;43.338;25.502;2023-05-21T05:54:39;100486.88;;;21.86;100.00
2268;BME280;11052;43.338;25.502;2023-05-21T05:57:06;100489.97;;;21.33;100.00
2268;BME280;11052;43.338;25.502;2023-05-21T05:59:34;100484.41;;;21.24;100.00
2268;BME280;11052;43.338;25.502;2023-05-21T06:02:01;100483.28;;;21.40;100.00
2268;BME280;11052;43.338;25.502;2023-05-21T06:04:28;100487.47;;;21.55;100.00
2268;BME280;11052;43.338;25.502;2023-05-21T06:06:55;100483.28;;;21.87;100.00
2268;BME280;11052;43.338;25.502;2023-05-21T06:09:23;100489.88;;;22.06;100.00
2268;BME280;11052;43.338;25.502;2023-05-21T06:11:52;100495.47;;;22.36;100.00
2268;BME280;11052;43.338;25.502;2023-05-21T06:14:19;100492.59;;;22.39;100.00
2268;BME280;11052;43.338;25.502;2023-05-21T06:16:46;100488.50;;;22.24;100.00
2268;BME280;11052;43.338;25.502;2023-05-21T06:19:13;100489.25;;;22.60;100.00
2268;BME280;11052;43.338;25.502;2023-05-21T06:21:40;100482.53;;;22.78;100.00
2268;BME280;11052;43.338;25.502;2023-05-21T06:24:07;100480.53;;;23.04;100.00
2268;BME280;11052;43.338;25.502;2023-05-21T06:26:34;100484.03;;;22.93;100.00
2268;BME280;11052;43.338;25.502;2023-05-21T06:29:03;100481.38;;;23.15;100.00
2268;BME280;11052;43.338;25.502;2023-05-21T06:31:30;100487.28;;;22.85;100.00
2268;BME280;11052;43.338;25.502;2023-05-21T06:33:58;100475.31;;;22.35;100.00
2268;BME280;11052;43.338;25.502;2023-05-21T06:36:26;100473.19;;;21.81;100.00
2268;BME280;11052;43.338;25.502;2023-05-21T06:38:54;100471.75;;;21.53;100.00
2268;BME280;11052;43.338;25.502;2023-05-21T06:41:22;100467.13;;;21.68;100.00
2268;BME280;11052;43.338;25.502;2023-05-21T06:43:49;100476.09;;;21.89;100.00
2268;BME280;11052;43.338;25.502;2023-05-21T06:46:18;100471.44;;;21.69;100.00
2268;BME280;11052;43.338;25.502;2023-05-21T06:48:45;100465.41;;;22.15;100.00
2268;BME280;11052;43.338;25.502;2023-05-21T06:51:12;100465.13;;;22.53;100.00
2268;BME280;11052;43.338;25.502;2023-05-21T06:53:39;100461.41;;;22.44;100.00
2268;BME280;11052;43.338;25.502;2023-05-21T06:56:07;100455.34;;;22.20;100.00
2268;BME280;11052;43.338;25.502;2023-05-21T06:58:34;100449.56;;;22.15;100.00
2268;BME280;11052;43.338;25.502;2023-05-21T07:01:01;100455.28;;;22.44;100.00
2268;BME280;11052;43.338;25.502;2023-05-21T07:03:29;100452.88;;;22.52;100.00
2268;BME280;11052;43.338;25.502;2023-05-21T07:05:57;100454.78;;;22.61;100.00
2268;BME280;11052;43.338;25.502;2023-05-21T07:08:24;100466.22;;;22.50;100.00
2268;BME280;11052;43.338;25.502;2023-05-21T07:10:51;100459.47;;;22.57;100.00
2268;BME280;11052;43.338;25.502;2023-05-21T07:13:21;100467.28;;;22.37;100.00
2268;BME280;11052;43.338;25.502;2023-05-21T07:15:49;100465.81;;;22.33;100.00
2268;BME280;11052;43.338;25.502;2023-05-21T07:18:16;100461.88;;;22.38;100.00
2268;BME280;11052;43.338;25.502;2023-05-21T07:20:44;100458.41;;;22.71;100.00
2268;BME280;11052;43.338;25.502;2023-05-21T07:23:12;100461.44;;;22.89;100.00
2268;BME280;11052;43.338;25.502;2023-05-21T07:25:39;100456.00;;;23.02;100.00
2268;BME280;11052;43.338;25.502;2023-05-21T07:28:06;100458.19;;;22.97;100.00
2268;BME280;11052;43.338;25.502;2023-05-21T07:30:33;100463.09;;;23.12;100.00
2268;BME280;11052;43.338;25.502;2023-05-21T07:33:00;100454.31;;;23.23;100.00
2268;BME280;11052;43.338;25.502;2023-05-21T07:35:27;100451.66;;;23.23;100.00
2268;BME280;11052;43.338;25.502;2023-05-21T07:37:56;100453.38;;;23.13;100.00
2268;BME280;11052;43.338;25.502;2023-05-21T07:40:23;100451.31;;;23.05;100.00
2268;BME280;11052;43.338;25.502;2023-05-21T07:42:50;100462.13;;;23.13;100.00
2268;BME280;11052;43.338;25.502;2023-05-21T07:45:17;100453.00;;;23.17;100.00
2268;BME280;11052;43.338;25.502;2023-05-21T07:47:45;100451.81;;;22.99;100.00
2268;BME280;11052;43.338;25.502;2023-05-21T07:50:13;100453.47;;;22.67;100.00
2268;BME280;11052;43.338;25.502;2023-05-21T07:52:40;100450.75;;;22.79;100.00
2268;BME280;11052;43.338;25.502;2023-05-21T07:55:10;100458.25;;;23.29;100.00
2268;BME280;11052;43.338;25.502;2023-05-21T07:57:37;100450.81;;;23.66;100.00
2268;BME280;11052;43.338;25.502;2023-05-21T08:00:05;100460.34;;;23.46;100.00
2268;BME280;11052;43.338;25.502;2023-05-21T08:02:33;100451.78;;;23.21;100.00
2268;BME280;11052;43.338;25.502;2023-05-21T08:05:00;100455.03;;;23.68;100.00
2268;BME280;11052;43.338;25.502;2023-05-21T08:07:28;100447.59;;;23.51;100.00
2268;BME280;11052;43.338;25.502;2023-05-21T08:09:56;100452.88;;;23.51;100.00
2268;BME280;11052;43.338;25.502;2023-05-21T08:12:25;100453.78;;;24.04;100.00
2268;BME280;11052;43.338;25.502;2023-05-21T08:14:52;100446.78;;;23.82;100.00
2268;BME280;11052;43.338;25.502;2023-05-21T08:17:19;100451.22;;;24.14;100.00
2268;BME280;11052;43.338;25.502;2023-05-21T08:19:46;100439.50;;;24.37;100.00
2268;BME280;11052;43.338;25.502;2023-05-21T08:22:13;100434.41;;;24.25;100.00
2268;BME280;11052;43.338;25.502;2023-05-21T08:24:40;100433.69;;;24.74;100.00
2268;BME280;11052;43.338;25.502;2023-05-21T08:27:07;100436.75;;;25.00;100.00
2268;BME280;11052;43.338;25.502;2023-05-21T08:29:36;100435.06;;;24.99;100.00
2268;BME280;11052;43.338;25.502;2023-05-21T08:32:04;100433.75;;;24.93;100.00
2268;BME280;11052;43.338;25.502;2023-05-21T08:34:31;100430.66;;;24.88;100.00
2268;BME280;11052;43.338;25.502;2023-05-21T08:36:58;100431.59;;;25.17;100.00
2268;BME280;11052;43.338;25.502;2023-05-21T08:39:25;100434.06;;;25.69;100.00
2268;BME280;11052;43.338;25.502;2023-05-21T08:41:58;100447.63;;;25.95;100.00
2268;BME280;11052;43.338;25.502;2023-05-21T08:44:29;100442.16;;;25.87;100.00
2268;BME280;11052;43.338;25.502;2023-05-21T08:47:01;100433.22;;;25.68;100.00
2268;BME280;11052;43.338;25.502;2023-05-21T08:49:33;100431.66;;;25.56;100.00
2268;BME280;11052;43.338;25.502;2023-05-21T08:52:01;100435.69;;;25.51;100.00
2268;BME280;11052;43.338;25.502;2023-05-21T08:54:28;100428.84;;;25.48;100.00
2268;BME280;11052;43.338;25.502;2023-05-21T08:56:57;100432.50;;;25.57;100.00
2268;BME280;11052;43.338;25.502;2023-05-21T08:59:25;100428.97;;;25.37;100.00
2268;BME280;11052;43.338;25.502;2023-05-21T09:01:53;100428.28;;;25.35;100.00
2268;BME280;11052;43.338;25.502;2023-05-21T09:04:23;100422.44;;;25.51;100.00
2268;BME280;11052;43.338;25.502;2023-05-21T09:06:53;100428.69;;;25.40;100.00
2268;BME280;11052;43.338;25.502;2023-05-21T09:09:27;100430.41;;;25.60;100.00
2268;BME280;11052;43.338;25.502;2023-05-21T09:11:57;100428.00;;;25.47;100.00
2268;BME280;11052;43.338;25.502;2023-05-21T09:14:25;100434.44;;;25.45;100.00
2268;BME280;11052;43.338;25.502;2023-05-21T09:16:52;100436.69;;;25.59;100.00
2268;BME280;11052;43.338;25.502;2023-05-21T09:19:20;100436.16;;;25.85;100.00
2268;BME280;11052;43.338;25.502;2023-05-21T09:21:50;100444.06;;;25.46;100.00
2268;BME280;11052;43.338;25.502;2023-05-21T09:24:20;100439.44;;;25.29;100.00
2268;BME280;11052;43.338;25.502;2023-05-21T09:26:48;100436.13;;;25.46;100.00
2268;BME280;11052;43.338;25.502;2023-05-21T09:29:15;100443.22;;;25.26;100.00
2268;BME280;11052;43.338;25.502;2023-05-21T09:31:43;100439.81;;;25.14;100.00
2268;BME280;11052;43.338;25.502;2023-05-21T09:34:10;100436.94;;;25.46;100.00
2268;BME280;11052;43.338;25.502;2023-05-21T09:36:38;100434.34;;;25.85;100.00
2268;BME280;11052;43.338;25.502;2023-05-21T09:39:07;100434.81;;;26.37;100.00
2268;BME280;11052;43.338;25.502;2023-05-21T09:41:36;100432.97;;;26.84;100.00
2268;BME280;11052;43.338;25.502;2023-05-21T09:44:04;100429.97;;;26.97;100.00
2268;BME280;11052;43.338;25.502;2023-05-21T09:46:38;100440.53;;;27.34;100.00
2268;BME280;11052;43.338;25.502;2023-05-21T09:49:06;100431.34;;;27.46;100.00
2268;BME280;11052;43.338;25.502;2023-05-21T09:51:33;100434.47;;;27.77;98.81
2268;BME280;11052;43.338;25.502;2023-05-21T09:54:04;100427.63;;;27.74;96.54
2268;BME280;11052;43.338;25.502;2023-05-21T09:56:33;100424.88;;;27.31;91.09
2268;BME280;11052;43.338;25.502;2023-05-21T09:59:02;100425.00;;;27.12;92.74
2268;BME280;11052;43.338;25.502;2023-05-21T10:01:30;100423.38;;;26.91;96.20
2268;BME280;11052;43.338;25.502;2023-05-21T10:04:02;100422.38;;;27.02;90.95
2268;BME280;11052;43.338;25.502;2023-05-21T10:06:31;100418.16;;;26.82;91.17
2268;BME280;11052;43.338;25.502;2023-05-21T10:09:01;100421.66;;;26.82;96.56
2268;BME280;11052;43.338;25.502;2023-05-21T10:11:30;100420.16;;;26.97;100.00
2268;BME280;11052;43.338;25.502;2023-05-21T10:14:03;100405.72;;;26.72;95.33
2268;BME280;11052;43.338;25.502;2023-05-21T10:16:32;100408.03;;;26.58;95.07
2268;BME280;11052;43.338;25.502;2023-05-21T10:19:00;100406.56;;;26.73;94.01
2268;BME280;11052;43.338;25.502;2023-05-21T10:21:29;100412.03;;;26.71;93.84
2268;BME280;11052;43.338;25.502;2023-05-21T10:23:57;100405.00;;;26.80;92.50
2268;BME280;11052;43.338;25.502;2023-05-21T10:26:26;100409.63;;;27.05;95.23
2268;BME280;11052;43.338;25.502;2023-05-21T10:28:55;100411.09;;;27.35;90.26
2268;BME280;11052;43.338;25.502;2023-05-21T10:31:25;100408.41;;;27.18;86.82
2268;BME280;11052;43.338;25.502;2023-05-21T10:33:52;100403.56;;;27.31;82.60
2268;BME280;11052;43.338;25.502;2023-05-21T10:36:20;100403.81;;;27.55;85.71
2268;BME280;11052;43.338;25.502;2023-05-21T10:38:48;100406.25;;;27.03;78.60
2268;BME280;11052;43.338;25.502;2023-05-21T10:41:17;100405.03;;;26.70;82.58
2268;BME280;11052;43.338;25.502;2023-05-21T10:43:58;100393.81;;;26.76;83.22
2268;BME280;11052;43.338;25.502;2023-05-21T10:46:54;100393.38;;;27.44;87.21
2268;BME280;11052;43.338;25.502;2023-05-21T10:49:37;100396.31;;;27.77;81.29
2268;BME280;11052;43.338;25.502;2023-05-21T10:52:21;100384.75;;;28.29;85.47
2268;BME280;11052;43.338;25.502;2023-05-21T10:54:58;100384.50;;;28.49;68.05
2268;BME280;11052;43.338;25.502;2023-05-21T10:57:49;100388.06;;;28.05;75.28
2268;BME280;11052;43.338;25.502;2023-05-21T11:00:23;100385.25;;;27.63;76.73
2268;BME280;11052;43.338;25.502;2023-05-21T11:02:53;100382.31;;;27.74;73.84
2268;BME280;11052;43.338;25.502;2023-05-21T11:05:37;100381.56;;;27.82;75.47
2268;BME280;11052;43.338;25.502;2023-05-21T11:08:18;100375.88;;;28.03;75.25
2268;BME280;11052;43.338;25.502;2023-05-21T11:10:51;100378.59;;;28.11;73.50
2268;BME280;11052;43.338;25.502;2023-05-21T11:13:18;100374.66;;;27.97;70.49
2268;BME280;11052;43.338;25.502;2023-05-21T11:16:07;100369.97;;;28.17;71.50
2268;BME280;11052;43.338;25.502;2023-05-21T11:18:59;100363.63;;;28.18;71.61
2268;BME280;11052;43.338;25.502;2023-05-21T11:21:33;100355.16;;;28.49;73.45
2268;BME280;11052;43.338;25.502;2023-05-21T11:24:03;100361.06;;;28.68;78.40
2268;BME280;11052;43.338;25.502;2023-05-21T11:26:57;100358.31;;;28.18;68.71
2268;BME280;11052;43.338;25.502;2023-05-21T11:29:40;100358.53;;;27.73;69.83
2268;BME280;11052;43.338;25.502;2023-05-21T11:32:10;100355.56;;;27.23;73.06
2268;BME280;11052;43.338;25.502;2023-05-21T11:34:43;100354.25;;;26.64;73.85
2268;BME280;11052;43.338;25.502;2023-05-21T11:37:32;100352.88;;;26.13;74.89
2268;BME280;11052;43.338;25.502;2023-05-21T11:40:16;100354.09;;;26.28;76.29
2268;BME280;11052;43.338;25.502;2023-05-21T11:42:48;100353.56;;;26.15;79.46
2268;BME280;11052;43.338;25.502;2023-05-21T11:45:17;100337.63;;;26.15;75.18
2268;BME280;11052;43.338;25.502;2023-05-21T11:47:45;100344.63;;;26.16;73.09
2268;BME280;11052;43.338;25.502;2023-05-21T11:50:14;100338.78;;;26.50;73.23
2268;BME280;11052;43.338;25.502;2023-05-21T11:52:42;100322.56;;;26.88;74.70
2268;BME280;11052;43.338;25.502;2023-05-21T11:55:10;100328.22;;;26.85;72.60
2268;BME280;11052;43.338;25.502;2023-05-21T11:57:40;100325.63;;;26.93;71.87
2268;BME280;11052;43.338;25.502;2023-05-21T12:00:13;100326.81;;;27.26;70.49
2268;BME280;11052;43.338;25.502;2023-05-21T12:02:46;100319.38;;;27.73;67.02
2268;BME280;11052;43.338;25.502;2023-05-21T12:05:15;100308.66;;;27.91;64.45
2268;BME280;11052;43.338;25.502;2023-05-21T12:07:45;100305.16;;;27.91;65.13
2268;BME280;11052;43.338;25.502;2023-05-21T12:10:14;100301.56;;;28.00;64.62
2268;BME280;11052;43.338;25.502;2023-05-21T12:12:42;100289.84;;;27.93;60.98
2268;BME280;11052;43.338;25.502;2023-05-21T12:15:10;100283.47;;;28.12;64.46
2268;BME280;11052;43.338;25.502;2023-05-21T12:17:38;100280.44;;;28.41;67.36
2268;BME280;11052;43.338;25.502;2023-05-21T12:20:06;100280.88;;;28.78;63.74
2268;BME280;11052;43.338;25.502;2023-05-21T12:22:40;100275.66;;;28.52;58.65
2268;BME280;11052;43.338;25.502;2023-05-21T12:25:11;100286.06;;;28.29;60.34
2268;BME280;11052;43.338;25.502;2023-05-21T12:27:39;100287.63;;;28.14;62.13
2268;BME280;11052;43.338;25.502;2023-05-21T12:30:09;100281.38;;;27.97;61.67
2268;BME280;11052;43.338;25.502;2023-05-21T12:32:39;100271.41;;;27.73;64.97
2268;BME280;11052;43.338;25.502;2023-05-21T12:35:08;100271.94;;;27.51;55.27
2268;BME280;11052;43.338;25.502;2023-05-21T12:37:37;100283.97;;;27.37;49.22
2268;BME280;11052;43.338;25.502;2023-05-21T12:40:06;100278.44;;;27.31;54.96
2268;BME280;11052;43.338;25.502;2023-05-21T12:42:33;100280.63;;;27.35;51.88
2268;BME280;11052;43.338;25.502;2023-05-21T12:45:00;100271.13;;;27.33;53.62
2268;BME280;11052;43.338;25.502;2023-05-21T12:47:31;100278.75;;;27.28;54.31
2268;BME280;11052;43.338;25.502;2023-05-21T12:50:00;100283.94;;;27.12;53.02
2268;BME280;11052;43.338;25.502;2023-05-21T12:52:27;100277.97;;;26.82;53.73